createdAt,value
2023-04-23T00:02:28.279Z,84.95
2023-04-23T00:05:00.636Z,84.83
2023-04-23T00:07:30.609Z,84.85
2023-04-23T00:10:04.245Z,84.99
2023-04-23T00:12:34.619Z,84.86
2023-04-23T00:15:05.084Z,85.04
2023-04-23T00:17:34.749Z,85.06
2023-04-23T00:20:04.434Z,85.08
2023-04-23T00:22:34.182Z,85.21
2023-04-23T00:25:07.027Z,85.10
2023-04-23T00:27:36.720Z,85.23
2023-04-23T00:30:07.106Z,85.18
2023-04-23T00:32:36.827Z,85.26
2023-04-23T00:35:07.252Z,85.40
2023-04-23T00:37:37.015Z,85.37
2023-04-23T00:40:11.248Z,85.45
2023-04-23T00:42:41.489Z,85.51
2023-04-23T00:45:12.420Z,85.36
2023-04-23T00:47:43.473Z,85.51
2023-04-23T00:50:14.335Z,85.44
2023-04-23T00:52:44.226Z,85.37
2023-04-23T00:55:16.504Z,85.71
2023-04-23T00:57:46.375Z,85.69
2023-04-23T01:00:18.015Z,85.76
2023-04-23T01:02:48.164Z,85.72
2023-04-23T01:05:19.217Z,85.76
2023-04-23T01:07:49.770Z,85.97
2023-04-23T01:10:22.232Z,85.86
2023-04-23T01:12:52.112Z,85.91
2023-04-23T01:15:21.906Z,86.10
2023-04-23T01:17:52.825Z,86.06
2023-04-23T01:20:32.634Z,86.25
2023-04-23T01:23:06.759Z,86.36
2023-04-23T01:25:36.526Z,86.36
2023-04-23T01:28:06.616Z,86.55
2023-04-23T01:30:36.792Z,86.67
2023-04-23T01:33:07.368Z,86.84
2023-04-23T01:35:38.655Z,86.84
2023-04-23T01:38:12.279Z,86.99
2023-04-23T01:40:42.053Z,87.04
2023-04-23T01:43:11.758Z,87.13
2023-04-23T01:45:41.613Z,87.28
2023-04-23T01:48:11.377Z,87.20
2023-04-23T01:50:41.684Z,87.60
2023-04-23T01:53:14.214Z,87.60
2023-04-23T01:55:44.291Z,87.91
2023-04-23T01:58:13.991Z,87.84
2023-04-23T02:00:43.845Z,88.00
2023-04-23T02:03:14.095Z,88.15
2023-04-23T02:05:44.858Z,88.33
2023-04-23T02:08:17.181Z,88.41
2023-04-23T02:10:46.908Z,88.37
2023-04-23T02:13:16.916Z,88.64
2023-04-23T02:15:46.831Z,88.61
2023-04-23T02:18:16.821Z,88.60
2023-04-23T02:20:46.554Z,88.71
2023-04-23T02:23:18.821Z,88.88
2023-04-23T02:25:48.558Z,88.99
2023-04-23T02:28:18.231Z,89.00
2023-04-23T02:30:48.122Z,89.29
2023-04-23T02:33:18.414Z,89.53
2023-04-23T02:35:48.094Z,89.58
2023-04-23T02:38:20.466Z,89.68
2023-04-23T02:40:50.196Z,89.83
2023-04-23T02:43:20.280Z,89.99
2023-04-23T02:45:49.973Z,89.91
2023-04-23T02:48:19.628Z,90.26
2023-04-23T02:50:49.712Z,90.33
2023-04-23T02:53:22.220Z,90.31
2023-04-23T02:55:51.959Z,90.49
2023-04-23T02:58:21.657Z,90.45
2023-04-23T03:00:53.993Z,90.55
2023-04-23T03:03:26.719Z,90.40
2023-04-23T03:05:57.847Z,90.71
2023-04-23T03:08:30.319Z,90.89
2023-04-23T03:11:00.040Z,91.04
2023-04-23T03:13:29.732Z,90.83
2023-04-23T03:15:59.805Z,90.96
2023-04-23T03:18:29.877Z,90.92
2023-04-23T03:21:00.118Z,90.73
2023-04-23T03:23:32.615Z,90.93
2023-04-23T03:26:02.298Z,90.66
2023-04-23T03:28:33.183Z,90.58
2023-04-23T03:31:02.974Z,90.66
2023-04-23T03:33:32.819Z,90.58
2023-04-23T03:36:02.731Z,90.57
2023-04-23T03:38:37.633Z,90.66
2023-04-23T03:41:07.701Z,90.48
2023-04-23T03:43:37.467Z,90.52
2023-04-23T03:46:07.483Z,90.56
2023-04-23T03:48:41.046Z,90.87
2023-04-23T03:51:16.258Z,90.72
2023-04-23T03:53:52.034Z,90.70
2023-04-23T03:56:40.383Z,90.92
2023-04-23T03:59:16.169Z,91.06
2023-04-23T04:01:48.858Z,91.25
2023-04-23T04:04:18.944Z,91.30
2023-04-23T04:06:48.899Z,91.25
2023-04-23T04:09:22.169Z,91.49
2023-04-23T04:11:53.314Z,91.45
2023-04-23T04:14:23.188Z,91.74
2023-04-23T04:16:53.016Z,92.10
2023-04-23T04:19:23.200Z,92.02
2023-04-23T04:21:53.155Z,91.89
2023-04-23T04:24:26.341Z,91.91
2023-04-23T04:26:56.210Z,91.92
2023-04-23T04:29:26.474Z,92.28
2023-04-23T04:31:56.564Z,92.00
2023-04-23T04:34:26.366Z,92.39
2023-04-23T04:36:56.513Z,92.23
2023-04-23T04:39:28.780Z,92.66
2023-04-23T04:42:00.043Z,92.39
2023-04-23T04:44:30.509Z,92.59
2023-04-23T04:47:00.533Z,92.55
2023-04-23T04:49:30.371Z,92.54
2023-04-23T04:52:00.067Z,92.28
2023-04-23T04:54:32.381Z,92.31
2023-04-23T04:57:02.637Z,92.06
2023-04-23T04:59:32.367Z,91.86
2023-04-23T05:02:02.476Z,91.59
2023-04-23T05:04:32.188Z,91.34
2023-04-23T05:07:01.885Z,91.12
2023-04-23T05:09:34.138Z,90.90
2023-04-23T05:12:07.470Z,90.68
2023-04-23T05:14:37.137Z,90.47
2023-04-23T05:17:07.224Z,90.14
2023-04-23T05:19:37.106Z,90.07
2023-04-23T05:22:07.026Z,89.74
2023-04-23T05:24:39.469Z,89.67
2023-04-23T05:27:09.371Z,89.52
2023-04-23T05:29:39.062Z,89.38
2023-04-23T05:32:08.773Z,89.25
2023-04-23T05:34:38.480Z,89.20
2023-04-23T05:37:08.254Z,88.99
2023-04-23T05:39:41.436Z,88.86
2023-04-23T05:42:13.174Z,88.69
2023-04-23T05:44:44.076Z,88.61
2023-04-23T05:47:14.864Z,88.32
2023-04-23T05:49:44.816Z,88.39
2023-04-23T05:52:14.577Z,88.04
2023-04-23T05:54:47.088Z,87.86
2023-04-23T05:57:16.882Z,87.89
2023-04-23T05:59:46.958Z,87.69
2023-04-23T06:02:16.723Z,87.61
2023-04-23T06:04:46.925Z,87.25
2023-04-23T06:07:17.043Z,87.20
2023-04-23T06:09:49.566Z,87.10
2023-04-23T06:12:19.410Z,86.82
2023-04-23T06:14:49.232Z,86.59
2023-04-23T06:17:18.971Z,86.54
2023-04-23T06:19:49.018Z,86.33
2023-04-23T06:22:18.790Z,86.29
2023-04-23T06:24:51.656Z,86.04
2023-04-23T06:27:21.569Z,85.93
2023-04-23T06:29:54.070Z,85.58
2023-04-23T06:32:24.776Z,85.29
2023-04-23T06:35:01.571Z,85.01
2023-04-23T06:37:32.087Z,84.55
2023-04-23T06:40:04.471Z,84.06
2023-04-23T06:42:34.152Z,83.93
2023-04-23T06:45:21.543Z,83.43
2023-04-23T06:47:51.550Z,83.03
2023-04-23T06:50:21.410Z,82.57
2023-04-23T06:52:51.281Z,82.39
2023-04-23T06:55:26.323Z,81.80
2023-04-23T06:57:56.350Z,81.92
2023-04-23T07:00:26.403Z,81.47
2023-04-23T07:02:56.569Z,81.71
2023-04-23T07:05:26.318Z,81.59
2023-04-23T07:07:56.154Z,81.55
2023-04-23T07:10:28.509Z,80.75
2023-04-23T07:12:58.236Z,80.65
2023-04-23T07:15:28.079Z,80.47
2023-04-23T07:17:57.816Z,80.29
2023-04-23T07:20:27.522Z,80.35
2023-04-23T07:22:57.367Z,79.35
2023-04-23T07:25:29.828Z,78.31
2023-04-23T07:27:59.620Z,76.88
2023-04-23T07:30:30.643Z,76.15
2023-04-23T07:33:00.389Z,75.00
2023-04-23T07:35:30.111Z,72.98
2023-04-23T07:37:59.829Z,70.77
2023-04-23T07:40:32.178Z,68.62
2023-04-23T07:43:01.915Z,68.36
2023-04-23T07:45:31.596Z,68.66
2023-04-23T07:48:02.549Z,68.36
2023-04-23T07:50:32.724Z,67.68
2023-04-23T07:53:02.406Z,67.54
2023-04-23T07:55:34.741Z,65.44
2023-04-23T07:58:04.395Z,64.65
2023-04-23T08:00:34.072Z,63.98
2023-04-23T08:03:03.898Z,63.54
2023-04-23T08:05:33.717Z,62.29
2023-04-23T08:08:03.432Z,60.08
2023-04-23T08:10:35.734Z,58.72
2023-04-23T08:13:05.686Z,56.76
2023-04-23T08:15:35.415Z,53.83
2023-04-23T08:18:06.136Z,51.43
2023-04-23T08:20:35.807Z,50.14
2023-04-23T08:23:05.607Z,47.37
2023-04-23T08:25:38.263Z,48.85
2023-04-23T08:28:07.995Z,49.37
2023-04-23T08:30:37.735Z,51.27
2023-04-23T08:33:07.678Z,52.30
2023-04-23T08:35:37.421Z,53.09
2023-04-23T08:38:07.109Z,52.01
2023-04-23T08:40:40.581Z,51.63
2023-04-23T08:43:14.258Z,51.92
2023-04-23T08:45:44.344Z,50.47
2023-04-23T08:48:14.438Z,51.05
2023-04-23T08:50:46.194Z,51.62
2023-04-23T08:53:21.580Z,53.12
2023-04-23T08:55:54.788Z,54.01
2023-04-23T08:58:25.927Z,54.55
2023-04-23T09:00:56.350Z,55.38
2023-04-23T09:03:26.426Z,54.61
2023-04-23T09:05:57.145Z,53.66
2023-04-23T09:08:26.791Z,51.63
2023-04-23T09:11:00.957Z,49.74
2023-04-23T09:13:31.012Z,48.60
2023-04-23T09:16:00.934Z,48.18
2023-04-23T09:18:30.836Z,47.73
2023-04-23T09:21:00.604Z,45.94
2023-04-23T09:23:32.155Z,44.82
2023-04-23T09:26:09.233Z,43.34
2023-04-23T09:28:39.410Z,43.27
2023-04-23T09:31:09.413Z,43.07
2023-04-23T09:33:39.171Z,41.81
2023-04-23T09:36:12.073Z,40.79
2023-04-23T09:38:43.037Z,40.69
2023-04-23T09:41:33.347Z,39.49
2023-04-23T09:44:04.267Z,39.41
2023-04-23T09:46:38.134Z,40.86
2023-04-23T09:49:09.076Z,41.79
2023-04-23T09:51:42.180Z,41.16
2023-04-23T09:54:16.491Z,41.82
2023-04-23T09:56:54.109Z,42.66
2023-04-23T09:59:36.009Z,43.87
2023-04-23T10:02:10.846Z,44.63
2023-04-23T10:04:42.241Z,45.06
2023-04-23T10:07:19.708Z,45.92
2023-04-23T10:09:50.861Z,46.76
2023-04-23T10:14:57.554Z,47.26
2023-04-23T10:17:27.405Z,47.46
2023-04-23T10:19:58.036Z,47.42
2023-04-23T10:22:30.884Z,48.01
2023-04-23T10:25:01.463Z,48.37
2023-04-23T10:27:51.208Z,48.35
2023-04-23T10:30:23.581Z,48.25
2023-04-23T10:32:53.704Z,48.34
2023-04-23T10:35:23.406Z,48.33
2023-04-23T10:37:53.357Z,47.66
2023-04-23T10:40:27.706Z,46.91
2023-04-23T10:43:00.576Z,46.31
2023-04-23T10:45:33.584Z,47.04
2023-04-23T10:48:04.590Z,46.61
2023-04-23T10:50:47.751Z,46.67
2023-04-23T10:53:28.058Z,47.25
2023-04-23T10:56:09.523Z,47.14
2023-04-23T10:58:56.610Z,47.11
2023-04-23T11:01:27.660Z,46.73
2023-04-23T11:03:57.506Z,46.31
2023-04-23T11:06:55.226Z,46.88
2023-04-23T11:09:48.911Z,46.03
2023-04-23T11:12:36.391Z,45.32
2023-04-23T11:15:17.141Z,45.06
2023-04-23T11:18:05.309Z,45.18
2023-04-23T11:20:35.228Z,44.66
2023-04-23T11:23:04.895Z,45.32
2023-04-23T11:25:35.063Z,44.97
2023-04-23T11:28:04.782Z,44.86
2023-04-23T11:30:37.058Z,44.86
2023-04-23T11:33:07.538Z,46.09
2023-04-23T11:35:40.881Z,46.03
2023-04-23T11:38:11.627Z,46.95
2023-04-23T11:40:42.875Z,46.46
2023-04-23T11:43:12.567Z,46.59
2023-04-23T11:45:44.879Z,46.79
2023-04-23T11:48:14.630Z,46.55
2023-04-23T11:50:44.752Z,46.27
2023-04-23T11:53:15.085Z,45.84
2023-04-23T11:55:45.998Z,45.61
2023-04-23T11:58:15.755Z,44.81
2023-04-23T12:00:49.278Z,44.82
2023-04-23T12:03:19.161Z,42.92
2023-04-23T12:05:48.936Z,42.67
2023-04-23T12:08:20.381Z,42.71
2023-04-23T12:10:51.973Z,41.71
2023-04-23T12:13:24.253Z,42.20
2023-04-23T12:15:57.979Z,41.73
2023-04-23T12:18:30.194Z,42.25
2023-04-23T12:21:07.384Z,42.15
2023-04-23T12:23:38.439Z,42.36
2023-04-23T12:26:14.102Z,42.63
2023-04-23T12:28:49.620Z,42.32
2023-04-23T12:31:25.228Z,42.07
2023-04-23T12:34:02.321Z,41.86
2023-04-23T12:36:33.223Z,41.89
2023-04-23T12:39:38.778Z,42.01
2023-04-23T12:42:10.948Z,42.09
2023-04-23T12:44:41.434Z,42.36
2023-04-23T12:47:15.346Z,42.73
2023-04-23T12:49:45.891Z,43.21
2023-04-23T12:52:16.233Z,43.02
2023-04-23T12:54:47.600Z,43.03
2023-04-23T12:57:21.859Z,43.00
2023-04-23T12:59:51.947Z,43.05
2023-04-23T13:02:24.638Z,43.09
2023-04-23T13:04:54.697Z,43.54
2023-04-23T13:07:24.482Z,42.89
2023-04-23T13:09:54.151Z,42.74
2023-04-23T13:12:23.825Z,42.79
2023-04-23T13:14:53.627Z,42.10
2023-04-23T13:17:26.533Z,41.86
2023-04-23T13:19:57.268Z,41.96
2023-04-23T13:22:29.187Z,41.66
2023-04-23T13:24:59.817Z,41.75
2023-04-23T13:27:31.806Z,41.97
2023-04-23T13:30:01.542Z,42.11
2023-04-23T13:32:34.634Z,41.58
2023-04-23T13:35:05.400Z,41.66
2023-04-23T13:37:35.308Z,42.11
2023-04-23T13:40:06.060Z,41.61
2023-04-23T13:42:35.952Z,41.82
2023-04-23T13:45:06.486Z,41.84
2023-04-23T13:47:38.876Z,41.89
2023-04-23T13:50:10.561Z,41.34
2023-04-23T13:52:40.440Z,41.35
2023-04-23T13:55:10.723Z,40.95
2023-04-23T13:57:41.006Z,40.72
2023-04-23T14:00:13.051Z,40.76
2023-04-23T14:02:45.528Z,41.05
2023-04-23T14:05:19.043Z,41.44
2023-04-23T14:07:48.777Z,41.01
2023-04-23T14:10:18.989Z,40.47
2023-04-23T14:12:48.917Z,40.96
2023-04-23T14:15:18.787Z,40.61
2023-04-23T14:17:51.221Z,40.38
2023-04-23T14:20:21.739Z,40.36
2023-04-23T14:22:53.095Z,40.98
2023-04-23T14:25:28.068Z,40.52
2023-04-23T14:27:59.605Z,40.92
2023-04-23T14:30:29.878Z,40.79
2023-04-23T14:33:02.183Z,41.14
2023-04-23T14:35:42.470Z,40.54
2023-04-23T14:38:13.289Z,41.03
2023-04-23T14:40:43.010Z,40.75
2023-04-23T14:43:15.783Z,40.12
2023-04-23T14:45:47.112Z,40.31
2023-04-23T14:48:19.505Z,40.30
2023-04-23T14:50:49.502Z,39.99
2023-04-23T14:53:21.637Z,40.64
2023-04-23T14:55:51.469Z,41.18
2023-04-23T14:58:21.211Z,41.41
2023-04-23T15:00:51.117Z,41.94
2023-04-23T15:03:23.595Z,42.72
2023-04-23T15:05:53.508Z,42.63
2023-04-23T15:08:23.341Z,43.01
2023-04-23T15:10:53.079Z,44.06
2023-04-23T15:13:41.544Z,44.26
2023-04-23T15:16:12.453Z,45.17
2023-04-23T15:18:44.794Z,46.31
2023-04-23T15:21:14.505Z,47.42
2023-04-23T15:23:44.198Z,48.57
2023-04-23T15:26:13.865Z,49.68
2023-04-23T15:28:43.657Z,51.31
2023-04-23T15:31:13.971Z,52.66
2023-04-23T15:33:46.695Z,53.75
2023-04-23T15:36:16.600Z,55.07
2023-04-23T15:38:46.337Z,55.95
2023-04-23T15:41:16.313Z,56.74
2023-04-23T15:43:47.471Z,57.41
2023-04-23T15:46:17.296Z,57.69
2023-04-23T15:48:49.956Z,57.88
2023-04-23T15:51:19.792Z,58.56
2023-04-23T15:53:49.457Z,58.41
2023-04-23T15:56:19.135Z,58.60
2023-04-23T15:58:48.863Z,58.76
2023-04-23T16:01:20.077Z,58.44
2023-04-23T16:04:08.603Z,58.86
2023-04-23T16:06:39.767Z,58.40
2023-04-23T16:09:09.762Z,58.99
2023-04-23T16:11:39.586Z,59.10
2023-04-23T16:14:10.276Z,59.76
2023-04-23T16:16:40.770Z,59.91
2023-04-23T16:19:13.082Z,60.27
2023-04-23T16:21:42.774Z,60.85
2023-04-23T16:24:12.443Z,61.16
2023-04-23T16:26:42.240Z,61.47
2023-04-23T16:31:46.885Z,62.27
2023-04-23T16:34:19.172Z,63.29
2023-04-23T16:36:48.889Z,63.68
2023-04-23T16:39:18.555Z,64.19
2023-04-23T16:41:48.224Z,64.92
2023-04-23T16:44:17.909Z,65.15
2023-04-23T16:46:47.662Z,65.59
2023-04-23T16:49:20.090Z,66.50
2023-04-23T16:51:49.800Z,67.48
2023-04-23T16:54:19.838Z,67.79
2023-04-23T16:56:49.512Z,68.65
2023-04-23T16:59:19.412Z,68.79
2023-04-23T17:01:49.137Z,69.88
2023-04-23T17:04:21.751Z,70.39
2023-04-23T17:06:51.582Z,70.50
2023-04-23T17:09:22.967Z,71.02
2023-04-23T17:11:52.635Z,71.55
2023-04-23T17:14:22.284Z,72.08
2023-04-23T17:16:51.957Z,72.49
2023-04-23T17:19:24.287Z,72.97
2023-04-23T17:21:53.973Z,73.33
2023-04-23T17:24:23.750Z,73.98
2023-04-23T17:26:53.564Z,74.40
2023-04-23T17:29:23.585Z,74.65
2023-04-23T17:31:53.379Z,75.06
2023-04-23T17:34:25.660Z,75.31
2023-04-23T17:36:55.346Z,75.87
2023-04-23T17:39:25.737Z,76.00
2023-04-23T17:41:56.247Z,76.47
2023-04-23T17:44:26.243Z,77.20
2023-04-23T17:46:56.293Z,77.39
2023-04-23T17:49:28.595Z,77.82
2023-04-23T17:51:58.244Z,78.18
2023-04-23T17:54:28.097Z,78.68
2023-04-23T17:56:57.823Z,78.83
2023-04-23T17:59:27.606Z,79.08
2023-04-23T18:01:58.654Z,79.32
2023-04-23T18:04:32.870Z,79.51
2023-04-23T18:07:02.540Z,79.62
2023-04-23T18:09:32.246Z,79.72
2023-04-23T18:12:01.917Z,79.99
2023-04-23T18:14:31.638Z,79.86
2023-04-23T18:17:01.375Z,80.10
2023-04-23T18:19:33.692Z,80.04
2023-04-23T18:22:03.825Z,80.11
2023-04-23T18:24:33.506Z,80.35
2023-04-23T18:27:03.497Z,80.32
2023-04-23T18:29:33.156Z,80.49
2023-04-23T18:32:02.937Z,80.44
2023-04-23T18:34:40.143Z,80.50
2023-04-23T18:37:12.769Z,80.57
2023-04-23T18:39:43.369Z,80.26
2023-04-23T18:42:13.048Z,80.74
2023-04-23T18:44:43.216Z,80.54
2023-04-23T18:47:13.080Z,81.12
2023-04-23T18:49:48.705Z,81.78
2023-04-23T18:52:18.369Z,82.02
2023-04-23T18:54:48.049Z,82.63
2023-04-23T18:57:17.721Z,82.94
2023-04-23T18:59:47.402Z,83.09
2023-04-23T19:02:28.242Z,83.49
2023-04-23T19:05:07.092Z,83.62
2023-04-23T19:07:37.384Z,83.78
2023-04-23T19:10:08.143Z,83.83
2023-04-23T19:12:37.901Z,84.02
2023-04-23T19:15:08.489Z,83.83
2023-04-23T19:17:38.695Z,83.85
2023-04-23T19:20:15.520Z,83.58
2023-04-23T19:22:45.591Z,84.00
2023-04-23T19:25:15.263Z,83.88
2023-04-23T19:27:45.080Z,83.79
2023-04-23T19:30:15.166Z,83.75
2023-04-23T19:32:44.950Z,83.77
2023-04-23T19:35:17.290Z,83.78
2023-04-23T19:37:47.372Z,84.03
2023-04-23T19:40:17.415Z,84.37
2023-04-23T19:42:47.085Z,84.65
2023-04-23T19:45:18.535Z,84.75
2023-04-23T19:47:48.273Z,84.56
2023-04-23T19:50:20.766Z,84.75
2023-04-23T19:52:50.554Z,85.08
2023-04-23T19:55:25.824Z,85.04
2023-04-23T19:57:55.768Z,84.96
2023-04-23T20:00:25.692Z,85.21
2023-04-23T20:02:55.968Z,85.17
2023-04-23T20:05:28.925Z,85.25
2023-04-23T20:08:00.378Z,85.21
2023-04-23T20:10:30.718Z,85.17
2023-04-23T20:13:00.470Z,85.31
2023-04-23T20:15:30.186Z,85.64
2023-04-23T20:18:00.089Z,85.37
2023-04-23T20:20:34.090Z,85.33
2023-04-23T20:23:03.838Z,85.07
2023-04-23T20:25:33.717Z,85.01
2023-04-23T20:28:03.422Z,85.01
2023-04-23T20:30:33.120Z,84.92
2023-04-23T20:33:03.440Z,84.94
2023-04-23T20:35:35.823Z,84.95
2023-04-23T20:38:05.772Z,84.88
2023-04-23T20:40:36.087Z,84.64
2023-04-23T20:43:05.805Z,84.03
2023-04-23T20:45:36.265Z,83.37
2023-04-23T20:48:06.071Z,83.14
2023-04-23T20:50:38.464Z,82.57
2023-04-23T20:53:08.510Z,82.15
2023-04-23T20:55:38.188Z,81.75
2023-04-23T20:58:07.934Z,81.24
2023-04-23T21:00:37.820Z,81.18
2023-04-23T21:03:07.895Z,80.75
2023-04-23T21:05:44.372Z,80.67
2023-04-23T21:08:14.531Z,80.31
2023-04-23T21:10:44.596Z,80.38
2023-04-23T21:13:14.637Z,80.06
2023-04-23T21:15:44.658Z,79.84
2023-04-23T21:18:14.375Z,79.52
2023-04-23T21:20:46.689Z,79.08
2023-04-23T21:23:16.441Z,78.77
2023-04-23T21:25:46.203Z,77.68
2023-04-23T21:28:15.937Z,77.34
2023-04-23T21:30:49.057Z,76.96
2023-04-23T21:33:19.799Z,76.52
2023-04-23T21:35:52.622Z,76.01
2023-04-23T21:38:24.149Z,75.94
2023-04-23T21:40:53.838Z,75.81
2023-04-23T21:43:24.467Z,75.81
2023-04-23T21:45:54.185Z,75.76
2023-04-23T21:48:24.041Z,75.60
2023-04-23T21:50:56.973Z,75.52
2023-04-23T21:53:26.687Z,75.32
2023-04-23T21:55:56.482Z,75.27
2023-04-23T21:58:26.158Z,75.39
2023-04-23T22:00:55.977Z,75.26
2023-04-23T22:03:36.511Z,75.30
2023-04-23T22:06:11.290Z,75.38
2023-04-23T22:08:41.101Z,75.23
2023-04-23T22:11:11.528Z,75.29
2023-04-23T22:13:41.372Z,75.32
2023-04-23T22:16:20.753Z,75.05
2023-04-23T22:18:54.599Z,75.14
2023-04-23T22:21:26.885Z,74.91
2023-04-23T22:23:57.036Z,74.87
2023-04-23T22:26:26.710Z,74.89
2023-04-23T22:28:56.410Z,74.85
2023-04-23T22:31:26.494Z,74.84
2023-04-23T22:33:56.227Z,74.67
2023-04-23T22:36:28.782Z,74.57
2023-04-23T22:38:58.520Z,74.52
2023-04-23T22:41:28.200Z,74.53
2023-04-23T22:43:57.922Z,74.33
2023-04-23T22:46:28.057Z,74.34
2023-04-23T22:48:57.896Z,74.27
2023-04-23T22:51:33.627Z,74.07
2023-04-23T22:54:03.383Z,74.17
2023-04-23T22:56:33.136Z,74.23
2023-04-23T22:59:02.876Z,74.09
2023-04-23T23:01:32.950Z,74.47
2023-04-23T23:04:03.037Z,74.46
2023-04-23T23:06:35.488Z,74.43
2023-04-23T23:09:05.340Z,74.25
2023-04-23T23:11:35.010Z,74.50
2023-04-23T23:14:04.781Z,74.58
2023-04-23T23:16:34.810Z,74.88
2023-04-23T23:19:04.486Z,74.96
2023-04-23T23:21:36.775Z,75.22
2023-04-23T23:24:06.673Z,75.20
2023-04-23T23:26:36.340Z,75.26
2023-04-23T23:29:06.074Z,75.31
2023-04-23T23:31:37.107Z,75.14
2023-04-23T23:34:07.119Z,75.18
2023-04-23T23:36:39.480Z,75.21
2023-04-23T23:39:09.242Z,75.40
2023-04-23T23:41:38.966Z,75.51
2023-04-23T23:44:08.669Z,75.71
2023-04-23T23:46:39.429Z,75.76
2023-04-23T23:49:09.195Z,75.97
2023-04-23T23:51:41.511Z,76.02
2023-04-23T23:54:11.291Z,76.27
2023-04-23T23:56:41.091Z,76.21
2023-04-23T23:59:10.818Z,76.34
